<?xml version="1.0" encoding="UTF-8" ?>
<gpx version="1.1" xmlns:xsi="http://www.w3.org/2001/XMLSchema-instance" 
    xmlns="http://www.topografix.com/GPX/1/1" 
    xsi:schemaLocation="http://www.topografix.com/GPX/1/1 http://www.topografix.com/GPX/1/1/gpx.xsd" 
    creator="Openrunner - https://www.openrunner.com" >	<trk>
						<name>11263699-Balade Verte - Circuit des trois lavoirs - SI4</name>
						<trkseg>
					<trkpt lat="46.617540" lon="5.013750">
						<ele>207</ele>
						<time>2020-05-06T14:02:42Z</time>
					</trkpt>
					<trkpt lat="46.618040" lon="5.013630">
						<ele>206</ele>
						<time>2020-05-06T14:03:50Z</time>
					</trkpt>
					<trkpt lat="46.618300" lon="5.013550">
						<ele>206</ele>
						<time>2020-05-06T14:04:25Z</time>
					</trkpt>
					<trkpt lat="46.618430" lon="5.013500">
						<ele>206</ele>
						<time>2020-05-06T14:04:43Z</time>
					</trkpt>
					<trkpt lat="46.618410" lon="5.013330">
						<ele>205</ele>
						<time>2020-05-06T14:04:59Z</time>
					</trkpt>
					<trkpt lat="46.618260" lon="5.012490">
						<ele>207</ele>
						<time>2020-05-06T14:06:18Z</time>
					</trkpt>
					<trkpt lat="46.618220" lon="5.012290">
						<ele>207</ele>
						<time>2020-05-06T14:06:37Z</time>
					</trkpt>
					<trkpt lat="46.618180" lon="5.012140">
						<ele>208</ele>
						<time>2020-05-06T14:06:52Z</time>
					</trkpt>
					<trkpt lat="46.618070" lon="5.011910">
						<ele>208</ele>
						<time>2020-05-06T14:07:18Z</time>
					</trkpt>
					<trkpt lat="46.617380" lon="5.010610">
						<ele>209</ele>
						<time>2020-05-06T14:09:49Z</time>
					</trkpt>
					<trkpt lat="46.616760" lon="5.009470">
						<ele>208</ele>
						<time>2020-05-06T14:12:02Z</time>
					</trkpt>
					<trkpt lat="46.616680" lon="5.009350">
						<ele>207</ele>
						<time>2020-05-06T14:12:17Z</time>
					</trkpt>
					<trkpt lat="46.616580" lon="5.009250">
						<ele>208</ele>
						<time>2020-05-06T14:12:33Z</time>
					</trkpt>
					<trkpt lat="46.616320" lon="5.009110">
						<ele>208</ele>
						<time>2020-05-06T14:13:10Z</time>
					</trkpt>
					<trkpt lat="46.615540" lon="5.008770">
						<ele>205</ele>
						<time>2020-05-06T14:14:59Z</time>
					</trkpt>
					<trkpt lat="46.615180" lon="5.008620">
						<ele>201</ele>
						<time>2020-05-06T14:15:49Z</time>
					</trkpt>
					<trkpt lat="46.615030" lon="5.008530">
						<ele>199</ele>
						<time>2020-05-06T14:16:11Z</time>
					</trkpt>
					<trkpt lat="46.614940" lon="5.008470">
						<ele>198</ele>
						<time>2020-05-06T14:16:24Z</time>
					</trkpt>
					<trkpt lat="46.614490" lon="5.008100">
						<ele>196</ele>
						<time>2020-05-06T14:17:33Z</time>
					</trkpt>
					<trkpt lat="46.614020" lon="5.007850">
						<ele>195</ele>
						<time>2020-05-06T14:18:40Z</time>
					</trkpt>
					<trkpt lat="46.613220" lon="5.007540">
						<ele>198</ele>
						<time>2020-05-06T14:20:30Z</time>
					</trkpt>
					<trkpt lat="46.612500" lon="5.007250">
						<ele>202</ele>
						<time>2020-05-06T14:22:10Z</time>
					</trkpt>
					<trkpt lat="46.612290" lon="5.007090">
						<ele>202</ele>
						<time>2020-05-06T14:22:41Z</time>
					</trkpt>
					<trkpt lat="46.611410" lon="5.006220">
						<ele>205</ele>
						<time>2020-05-06T14:25:03Z</time>
					</trkpt>
					<trkpt lat="46.610800" lon="5.005600">
						<ele>205</ele>
						<time>2020-05-06T14:26:43Z</time>
					</trkpt>
					<trkpt lat="46.611050" lon="5.004650">
						<ele>202</ele>
						<time>2020-05-06T14:28:16Z</time>
					</trkpt>
					<trkpt lat="46.611390" lon="5.003420">
						<ele>199</ele>
						<time>2020-05-06T14:30:17Z</time>
					</trkpt>
					<trkpt lat="46.611640" lon="5.002510">
						<ele>197</ele>
						<time>2020-05-06T14:31:47Z</time>
					</trkpt>
					<trkpt lat="46.611760" lon="5.002140">
						<ele>195</ele>
						<time>2020-05-06T14:32:25Z</time>
					</trkpt>
					<trkpt lat="46.611890" lon="5.001880">
						<ele>194</ele>
						<time>2020-05-06T14:32:54Z</time>
					</trkpt>
					<trkpt lat="46.612390" lon="5.001180">
						<ele>193</ele>
						<time>2020-05-06T14:34:27Z</time>
					</trkpt>
					<trkpt lat="46.612860" lon="5.000510">
						<ele>196</ele>
						<time>2020-05-06T14:35:55Z</time>
					</trkpt>
					<trkpt lat="46.613380" lon="4.999770">
						<ele>197</ele>
						<time>2020-05-06T14:37:32Z</time>
					</trkpt>
					<trkpt lat="46.613950" lon="4.998970">
						<ele>200</ele>
						<time>2020-05-06T14:39:17Z</time>
					</trkpt>
					<trkpt lat="46.614110" lon="4.998750">
						<ele>200</ele>
						<time>2020-05-06T14:39:47Z</time>
					</trkpt>
					<trkpt lat="46.614280" lon="4.998570">
						<ele>201</ele>
						<time>2020-05-06T14:40:15Z</time>
					</trkpt>
					<trkpt lat="46.614330" lon="4.998510">
						<ele>201</ele>
						<time>2020-05-06T14:40:23Z</time>
					</trkpt>
					<trkpt lat="46.614260" lon="4.998320">
						<ele>201</ele>
						<time>2020-05-06T14:40:43Z</time>
					</trkpt>
					<trkpt lat="46.614190" lon="4.998300">
						<ele>201</ele>
						<time>2020-05-06T14:40:53Z</time>
					</trkpt>
					<trkpt lat="46.613960" lon="4.998130">
						<ele>201</ele>
						<time>2020-05-06T14:41:27Z</time>
					</trkpt>
					<trkpt lat="46.613740" lon="4.997900">
						<ele>200</ele>
						<time>2020-05-06T14:42:03Z</time>
					</trkpt>
					<trkpt lat="46.613600" lon="4.997690">
						<ele>199</ele>
						<time>2020-05-06T14:42:30Z</time>
					</trkpt>
					<trkpt lat="46.612900" lon="4.996400">
						<ele>195</ele>
						<time>2020-05-06T14:45:01Z</time>
					</trkpt>
					<trkpt lat="46.612830" lon="4.996250">
						<ele>195</ele>
						<time>2020-05-06T14:45:17Z</time>
					</trkpt>
					<trkpt lat="46.612770" lon="4.995960">
						<ele>195</ele>
						<time>2020-05-06T14:45:45Z</time>
					</trkpt>
					<trkpt lat="46.612530" lon="4.994340">
						<ele>192</ele>
						<time>2020-05-06T14:48:17Z</time>
					</trkpt>
					<trkpt lat="46.612440" lon="4.993920">
						<ele>192</ele>
						<time>2020-05-06T14:48:57Z</time>
					</trkpt>
					<trkpt lat="46.612370" lon="4.993790">
						<ele>192</ele>
						<time>2020-05-06T14:49:12Z</time>
					</trkpt>
					<trkpt lat="46.611770" lon="4.992840">
						<ele>192</ele>
						<time>2020-05-06T14:51:11Z</time>
					</trkpt>
					<trkpt lat="46.611530" lon="4.992880">
						<ele>192</ele>
						<time>2020-05-06T14:51:43Z</time>
					</trkpt>
					<trkpt lat="46.611420" lon="4.992900">
						<ele>192</ele>
						<time>2020-05-06T14:51:58Z</time>
					</trkpt>
					<trkpt lat="46.611240" lon="4.992960">
						<ele>192</ele>
						<time>2020-05-06T14:52:22Z</time>
					</trkpt>
					<trkpt lat="46.611130" lon="4.992990">
						<ele>192</ele>
						<time>2020-05-06T14:52:37Z</time>
					</trkpt>
					<trkpt lat="46.611080" lon="4.992970">
						<ele>192</ele>
						<time>2020-05-06T14:52:44Z</time>
					</trkpt>
					<trkpt lat="46.610940" lon="4.992870">
						<ele>192</ele>
						<time>2020-05-06T14:53:05Z</time>
					</trkpt>
					<trkpt lat="46.610880" lon="4.992830">
						<ele>193</ele>
						<time>2020-05-06T14:53:14Z</time>
					</trkpt>
					<trkpt lat="46.610780" lon="4.992830">
						<ele>192</ele>
						<time>2020-05-06T14:53:27Z</time>
					</trkpt>
					<trkpt lat="46.610660" lon="4.992900">
						<ele>192</ele>
						<time>2020-05-06T14:53:44Z</time>
					</trkpt>
					<trkpt lat="46.610480" lon="4.993030">
						<ele>192</ele>
						<time>2020-05-06T14:54:11Z</time>
					</trkpt>
					<trkpt lat="46.610420" lon="4.993130">
						<ele>192</ele>
						<time>2020-05-06T14:54:23Z</time>
					</trkpt>
					<trkpt lat="46.610340" lon="4.993380">
						<ele>192</ele>
						<time>2020-05-06T14:54:49Z</time>
					</trkpt>
					<trkpt lat="46.610340" lon="4.993690">
						<ele>192</ele>
						<time>2020-05-06T14:55:17Z</time>
					</trkpt>
					<trkpt lat="46.610570" lon="4.994220">
						<ele>192</ele>
						<time>2020-05-06T14:56:15Z</time>
					</trkpt>
					<trkpt lat="46.610820" lon="4.994780">
						<ele>193</ele>
						<time>2020-05-06T14:57:16Z</time>
					</trkpt>
					<trkpt lat="46.610990" lon="4.995320">
						<ele>195</ele>
						<time>2020-05-06T14:58:10Z</time>
					</trkpt>
					<trkpt lat="46.611160" lon="4.995820">
						<ele>196</ele>
						<time>2020-05-06T14:59:01Z</time>
					</trkpt>
					<trkpt lat="46.611130" lon="4.996070">
						<ele>196</ele>
						<time>2020-05-06T14:59:25Z</time>
					</trkpt>
					<trkpt lat="46.610960" lon="4.996260">
						<ele>196</ele>
						<time>2020-05-06T14:59:53Z</time>
					</trkpt>
					<trkpt lat="46.610800" lon="4.996500">
						<ele>196</ele>
						<time>2020-05-06T15:00:24Z</time>
					</trkpt>
					<trkpt lat="46.610770" lon="4.996550">
						<ele>196</ele>
						<time>2020-05-06T15:00:30Z</time>
					</trkpt>
					<trkpt lat="46.610450" lon="4.996830">
						<ele>195</ele>
						<time>2020-05-06T15:01:20Z</time>
					</trkpt>
					<trkpt lat="46.610270" lon="4.996980">
						<ele>194</ele>
						<time>2020-05-06T15:01:48Z</time>
					</trkpt>
					<trkpt lat="46.609680" lon="4.997650">
						<ele>194</ele>
						<time>2020-05-06T15:03:27Z</time>
					</trkpt>
					<trkpt lat="46.609510" lon="4.997840">
						<ele>194</ele>
						<time>2020-05-06T15:03:56Z</time>
					</trkpt>
					<trkpt lat="46.609020" lon="4.998230">
						<ele>194</ele>
						<time>2020-05-06T15:05:11Z</time>
					</trkpt>
					<trkpt lat="46.608790" lon="4.998340">
						<ele>195</ele>
						<time>2020-05-06T15:05:43Z</time>
					</trkpt>
					<trkpt lat="46.608890" lon="4.998420">
						<ele>195</ele>
						<time>2020-05-06T15:05:58Z</time>
					</trkpt>
					<trkpt lat="46.608990" lon="4.998530">
						<ele>195</ele>
						<time>2020-05-06T15:06:15Z</time>
					</trkpt>
					<trkpt lat="46.609070" lon="4.998670">
						<ele>195</ele>
						<time>2020-05-06T15:06:32Z</time>
					</trkpt>
					<trkpt lat="46.609460" lon="4.999750">
						<ele>197</ele>
						<time>2020-05-06T15:08:23Z</time>
					</trkpt>
					<trkpt lat="46.609720" lon="5.000480">
						<ele>198</ele>
						<time>2020-05-06T15:09:39Z</time>
					</trkpt>
					<trkpt lat="46.609780" lon="5.000700">
						<ele>198</ele>
						<time>2020-05-06T15:10:00Z</time>
					</trkpt>
					<trkpt lat="46.609810" lon="5.000870">
						<ele>198</ele>
						<time>2020-05-06T15:10:17Z</time>
					</trkpt>
					<trkpt lat="46.609820" lon="5.001060">
						<ele>199</ele>
						<time>2020-05-06T15:10:34Z</time>
					</trkpt>
					<trkpt lat="46.609810" lon="5.001170">
						<ele>199</ele>
						<time>2020-05-06T15:10:44Z</time>
					</trkpt>
					<trkpt lat="46.609630" lon="5.002190">
						<ele>200</ele>
						<time>2020-05-06T15:12:21Z</time>
					</trkpt>
					<trkpt lat="46.609540" lon="5.002720">
						<ele>201</ele>
						<time>2020-05-06T15:13:11Z</time>
					</trkpt>
					<trkpt lat="46.609530" lon="5.002940">
						<ele>201</ele>
						<time>2020-05-06T15:13:31Z</time>
					</trkpt>
					<trkpt lat="46.609550" lon="5.003220">
						<ele>202</ele>
						<time>2020-05-06T15:13:57Z</time>
					</trkpt>
					<trkpt lat="46.609650" lon="5.004090">
						<ele>204</ele>
						<time>2020-05-06T15:15:18Z</time>
					</trkpt>
					<trkpt lat="46.609700" lon="5.004320">
						<ele>204</ele>
						<time>2020-05-06T15:15:40Z</time>
					</trkpt>
					<trkpt lat="46.609440" lon="5.004610">
						<ele>205</ele>
						<time>2020-05-06T15:16:23Z</time>
					</trkpt>
					<trkpt lat="46.609390" lon="5.004680">
						<ele>205</ele>
						<time>2020-05-06T15:16:33Z</time>
					</trkpt>
					<trkpt lat="46.609370" lon="5.004790">
						<ele>205</ele>
						<time>2020-05-06T15:16:43Z</time>
					</trkpt>
					<trkpt lat="46.609370" lon="5.005520">
						<ele>207</ele>
						<time>2020-05-06T15:17:50Z</time>
					</trkpt>
					<trkpt lat="46.609320" lon="5.006490">
						<ele>208</ele>
						<time>2020-05-06T15:19:19Z</time>
					</trkpt>
					<trkpt lat="46.609290" lon="5.006650">
						<ele>208</ele>
						<time>2020-05-06T15:19:34Z</time>
					</trkpt>
					<trkpt lat="46.609200" lon="5.006860">
						<ele>208</ele>
						<time>2020-05-06T15:19:57Z</time>
					</trkpt>
					<trkpt lat="46.609120" lon="5.007060">
						<ele>209</ele>
						<time>2020-05-06T15:20:18Z</time>
					</trkpt>
					<trkpt lat="46.609100" lon="5.007150">
						<ele>209</ele>
						<time>2020-05-06T15:20:27Z</time>
					</trkpt>
					<trkpt lat="46.609070" lon="5.007440">
						<ele>210</ele>
						<time>2020-05-06T15:20:54Z</time>
					</trkpt>
					<trkpt lat="46.609050" lon="5.007560">
						<ele>210</ele>
						<time>2020-05-06T15:21:05Z</time>
					</trkpt>
					<trkpt lat="46.609160" lon="5.007590">
						<ele>210</ele>
						<time>2020-05-06T15:21:20Z</time>
					</trkpt>
					<trkpt lat="46.609410" lon="5.007750">
						<ele>210</ele>
						<time>2020-05-06T15:21:57Z</time>
					</trkpt>
					<trkpt lat="46.609850" lon="5.008040">
						<ele>209</ele>
						<time>2020-05-06T15:23:01Z</time>
					</trkpt>
					<trkpt lat="46.610350" lon="5.008200">
						<ele>207</ele>
						<time>2020-05-06T15:24:09Z</time>
					</trkpt>
					<trkpt lat="46.610220" lon="5.008560">
						<ele>207</ele>
						<time>2020-05-06T15:24:47Z</time>
					</trkpt>
					<trkpt lat="46.609710" lon="5.009820">
						<ele>205</ele>
						<time>2020-05-06T15:27:01Z</time>
					</trkpt>
					<trkpt lat="46.609170" lon="5.011210">
						<ele>207</ele>
						<time>2020-05-06T15:29:27Z</time>
					</trkpt>
					<trkpt lat="46.608510" lon="5.012890">
						<ele>210</ele>
						<time>2020-05-06T15:32:25Z</time>
					</trkpt>
					<trkpt lat="46.608010" lon="5.014150">
						<ele>210</ele>
						<time>2020-05-06T15:34:38Z</time>
					</trkpt>
					<trkpt lat="46.608000" lon="5.014370">
						<ele>211</ele>
						<time>2020-05-06T15:34:58Z</time>
					</trkpt>
					<trkpt lat="46.607940" lon="5.014790">
						<ele>214</ele>
						<time>2020-05-06T15:35:37Z</time>
					</trkpt>
					<trkpt lat="46.607940" lon="5.014850">
						<ele>214</ele>
						<time>2020-05-06T15:35:43Z</time>
					</trkpt>
					<trkpt lat="46.607960" lon="5.014910">
						<ele>214</ele>
						<time>2020-05-06T15:35:49Z</time>
					</trkpt>
					<trkpt lat="46.608000" lon="5.014960">
						<ele>214</ele>
						<time>2020-05-06T15:35:56Z</time>
					</trkpt>
					<trkpt lat="46.608060" lon="5.014980">
						<ele>214</ele>
						<time>2020-05-06T15:36:04Z</time>
					</trkpt>
					<trkpt lat="46.608200" lon="5.015010">
						<ele>214</ele>
						<time>2020-05-06T15:36:23Z</time>
					</trkpt>
					<trkpt lat="46.608520" lon="5.015040">
						<ele>212</ele>
						<time>2020-05-06T15:37:06Z</time>
					</trkpt>
					<trkpt lat="46.608650" lon="5.015060">
						<ele>212</ele>
						<time>2020-05-06T15:37:23Z</time>
					</trkpt>
					<trkpt lat="46.609150" lon="5.015250">
						<ele>210</ele>
						<time>2020-05-06T15:38:32Z</time>
					</trkpt>
					<trkpt lat="46.609230" lon="5.015310">
						<ele>210</ele>
						<time>2020-05-06T15:38:44Z</time>
					</trkpt>
					<trkpt lat="46.609760" lon="5.015970">
						<ele>210</ele>
						<time>2020-05-06T15:40:18Z</time>
					</trkpt>
					<trkpt lat="46.609870" lon="5.016050">
						<ele>210</ele>
						<time>2020-05-06T15:40:34Z</time>
					</trkpt>
					<trkpt lat="46.610090" lon="5.016640">
						<ele>209</ele>
						<time>2020-05-06T15:41:35Z</time>
					</trkpt>
					<trkpt lat="46.610230" lon="5.016950">
						<ele>208</ele>
						<time>2020-05-06T15:42:09Z</time>
					</trkpt>
					<trkpt lat="46.610360" lon="5.017130">
						<ele>207</ele>
						<time>2020-05-06T15:42:33Z</time>
					</trkpt>
					<trkpt lat="46.610880" lon="5.017770">
						<ele>206</ele>
						<time>2020-05-06T15:44:04Z</time>
					</trkpt>
					<trkpt lat="46.610980" lon="5.018020">
						<ele>206</ele>
						<time>2020-05-06T15:44:31Z</time>
					</trkpt>
					<trkpt lat="46.611020" lon="5.018140">
						<ele>205</ele>
						<time>2020-05-06T15:44:43Z</time>
					</trkpt>
					<trkpt lat="46.611020" lon="5.018250">
						<ele>205</ele>
						<time>2020-05-06T15:44:53Z</time>
					</trkpt>
					<trkpt lat="46.610990" lon="5.018520">
						<ele>204</ele>
						<time>2020-05-06T15:45:18Z</time>
					</trkpt>
					<trkpt lat="46.610900" lon="5.018890">
						<ele>203</ele>
						<time>2020-05-06T15:45:54Z</time>
					</trkpt>
					<trkpt lat="46.610840" lon="5.019070">
						<ele>202</ele>
						<time>2020-05-06T15:46:13Z</time>
					</trkpt>
					<trkpt lat="46.610740" lon="5.019360">
						<ele>203</ele>
						<time>2020-05-06T15:46:42Z</time>
					</trkpt>
					<trkpt lat="46.610710" lon="5.019520">
						<ele>204</ele>
						<time>2020-05-06T15:46:57Z</time>
					</trkpt>
					<trkpt lat="46.610710" lon="5.019880">
						<ele>206</ele>
						<time>2020-05-06T15:47:30Z</time>
					</trkpt>
					<trkpt lat="46.610770" lon="5.020010">
						<ele>206</ele>
						<time>2020-05-06T15:47:45Z</time>
					</trkpt>
					<trkpt lat="46.611600" lon="5.020840">
						<ele>206</ele>
						<time>2020-05-06T15:49:59Z</time>
					</trkpt>
					<trkpt lat="46.612150" lon="5.021330">
						<ele>209</ele>
						<time>2020-05-06T15:51:25Z</time>
					</trkpt>
					<trkpt lat="46.612280" lon="5.021420">
						<ele>210</ele>
						<time>2020-05-06T15:51:44Z</time>
					</trkpt>
					<trkpt lat="46.612390" lon="5.021430">
						<ele>210</ele>
						<time>2020-05-06T15:51:59Z</time>
					</trkpt>
					<trkpt lat="46.612470" lon="5.021410">
						<ele>209</ele>
						<time>2020-05-06T15:52:10Z</time>
					</trkpt>
					<trkpt lat="46.612570" lon="5.021370">
						<ele>209</ele>
						<time>2020-05-06T15:52:24Z</time>
					</trkpt>
					<trkpt lat="46.612670" lon="5.021360">
						<ele>209</ele>
						<time>2020-05-06T15:52:37Z</time>
					</trkpt>
					<trkpt lat="46.613340" lon="5.021390">
						<ele>209</ele>
						<time>2020-05-06T15:54:07Z</time>
					</trkpt>
					<trkpt lat="46.613440" lon="5.021360">
						<ele>209</ele>
						<time>2020-05-06T15:54:20Z</time>
					</trkpt>
					<trkpt lat="46.613570" lon="5.021250">
						<ele>209</ele>
						<time>2020-05-06T15:54:40Z</time>
					</trkpt>
					<trkpt lat="46.613620" lon="5.021130">
						<ele>208</ele>
						<time>2020-05-06T15:54:53Z</time>
					</trkpt>
					<trkpt lat="46.613850" lon="5.020070">
						<ele>202</ele>
						<time>2020-05-06T15:56:35Z</time>
					</trkpt>
					<trkpt lat="46.614260" lon="5.019100">
						<ele>202</ele>
						<time>2020-05-06T15:58:20Z</time>
					</trkpt>
					<trkpt lat="46.614330" lon="5.018900">
						<ele>202</ele>
						<time>2020-05-06T15:58:40Z</time>
					</trkpt>
					<trkpt lat="46.614440" lon="5.018380">
						<ele>203</ele>
						<time>2020-05-06T15:59:30Z</time>
					</trkpt>
					<trkpt lat="46.614760" lon="5.017530">
						<ele>203</ele>
						<time>2020-05-06T16:00:59Z</time>
					</trkpt>
					<trkpt lat="46.614890" lon="5.016980">
						<ele>202</ele>
						<time>2020-05-06T16:01:52Z</time>
					</trkpt>
					<trkpt lat="46.614960" lon="5.016610">
						<ele>201</ele>
						<time>2020-05-06T16:02:27Z</time>
					</trkpt>
					<trkpt lat="46.615030" lon="5.016350">
						<ele>201</ele>
						<time>2020-05-06T16:02:53Z</time>
					</trkpt>
					<trkpt lat="46.615150" lon="5.016030">
						<ele>201</ele>
						<time>2020-05-06T16:03:26Z</time>
					</trkpt>
					<trkpt lat="46.615180" lon="5.015930">
						<ele>201</ele>
						<time>2020-05-06T16:03:36Z</time>
					</trkpt>
					<trkpt lat="46.615240" lon="5.015810">
						<ele>201</ele>
						<time>2020-05-06T16:03:50Z</time>
					</trkpt>
					<trkpt lat="46.615380" lon="5.015630">
						<ele>201</ele>
						<time>2020-05-06T16:04:15Z</time>
					</trkpt>
					<trkpt lat="46.615660" lon="5.015280">
						<ele>201</ele>
						<time>2020-05-06T16:05:04Z</time>
					</trkpt>
					<trkpt lat="46.615860" lon="5.015100">
						<ele>201</ele>
						<time>2020-05-06T16:05:35Z</time>
					</trkpt>
					<trkpt lat="46.616170" lon="5.014950">
						<ele>202</ele>
						<time>2020-05-06T16:06:19Z</time>
					</trkpt>
					<trkpt lat="46.616300" lon="5.014830">
						<ele>203</ele>
						<time>2020-05-06T16:06:40Z</time>
					</trkpt>
					<trkpt lat="46.616360" lon="5.014720">
						<ele>203</ele>
						<time>2020-05-06T16:06:53Z</time>
					</trkpt>
					<trkpt lat="46.616360" lon="5.014660">
						<ele>203</ele>
						<time>2020-05-06T16:06:58Z</time>
					</trkpt>
					<trkpt lat="46.616440" lon="5.014670">
						<ele>203</ele>
						<time>2020-05-06T16:07:09Z</time>
					</trkpt>
					<trkpt lat="46.616540" lon="5.014630">
						<ele>203</ele>
						<time>2020-05-06T16:07:23Z</time>
					</trkpt>
					<trkpt lat="46.616620" lon="5.014580">
						<ele>203</ele>
						<time>2020-05-06T16:07:34Z</time>
					</trkpt>
					<trkpt lat="46.616940" lon="5.014330">
						<ele>204</ele>
						<time>2020-05-06T16:08:23Z</time>
					</trkpt>
					<trkpt lat="46.617110" lon="5.014170">
						<ele>205</ele>
						<time>2020-05-06T16:08:50Z</time>
					</trkpt>
					<trkpt lat="46.617190" lon="5.014030">
						<ele>206</ele>
						<time>2020-05-06T16:09:06Z</time>
					</trkpt>
					<trkpt lat="46.617240" lon="5.013930">
						<ele>206</ele>
						<time>2020-05-06T16:09:18Z</time>
					</trkpt>
					<trkpt lat="46.617330" lon="5.013830">
						<ele>207</ele>
						<time>2020-05-06T16:09:33Z</time>
					</trkpt>
					<trkpt lat="46.617410" lon="5.013780">
						<ele>207</ele>
						<time>2020-05-06T16:09:44Z</time>
					</trkpt>
					<trkpt lat="46.617540" lon="5.013750">
						<ele>207</ele>
						<time>2020-05-06T16:10:02Z</time>
					</trkpt>
					</trkseg>
				</trk>
			</gpx>